sensor_id;sensor_type;location;lat;lon;timestamp;P1;durP1;ratioP1;P2;durP2;ratioP2
16866;SDS011;8550;52.596;13.320;2023-03-01T00:03:56;6.70;;;4.22;;
16866;SDS011;8550;52.596;13.320;2023-03-01T00:09:01;11.03;;;5.37;;
16866;SDS011;8550;52.596;13.320;2023-03-01T00:14:05;5.38;;;3.63;;
16866;SDS011;8550;52.596;13.320;2023-03-01T00:19:08;5.28;;;3.38;;
16866;SDS011;8550;52.596;13.320;2023-03-01T00:29:20;9.10;;;2.77;;
16866;SDS011;8550;52.596;13.320;2023-03-01T00:34:22;6.25;;;3.25;;
16866;SDS011;8550;52.596;13.320;2023-03-01T00:39:24;7.25;;;4.18;;
16866;SDS011;8550;52.596;13.320;2023-03-01T00:44:28;7.27;;;4.43;;
16866;SDS011;8550;52.596;13.320;2023-03-01T00:49:30;5.88;;;2.72;;
16866;SDS011;8550;52.596;13.320;2023-03-01T00:54:33;8.10;;;3.40;;
16866;SDS011;8550;52.596;13.320;2023-03-01T00:59:36;6.67;;;3.93;;
16866;SDS011;8550;52.596;13.320;2023-03-01T01:04:38;6.28;;;3.92;;
16866;SDS011;8550;52.596;13.320;2023-03-01T01:09:40;10.10;;;3.47;;
16866;SDS011;8550;52.596;13.320;2023-03-01T01:14:44;9.97;;;4.37;;
16866;SDS011;8550;52.596;13.320;2023-03-01T01:19:46;6.03;;;3.13;;
16866;SDS011;8550;52.596;13.320;2023-03-01T01:24:48;19.48;;;5.30;;
16866;SDS011;8550;52.596;13.320;2023-03-01T01:29:52;8.95;;;4.90;;
16866;SDS011;8550;52.596;13.320;2023-03-01T01:34:54;8.30;;;4.90;;
16866;SDS011;8550;52.596;13.320;2023-03-01T01:39:56;11.35;;;4.40;;
16866;SDS011;8550;52.596;13.320;2023-03-01T01:50:32;4.40;;;2.67;;
16866;SDS011;8550;52.596;13.320;2023-03-01T01:55:39;6.50;;;2.22;;
16866;SDS011;8550;52.596;13.320;2023-03-01T02:00:44;6.22;;;2.47;;
16866;SDS011;8550;52.596;13.320;2023-03-01T02:05:47;6.60;;;2.77;;
16866;SDS011;8550;52.596;13.320;2023-03-01T02:10:53;5.17;;;3.23;;
16866;SDS011;8550;52.596;13.320;2023-03-01T02:15:58;5.32;;;3.08;;
16866;SDS011;8550;52.596;13.320;2023-03-01T02:21:06;5.20;;;2.17;;
16866;SDS011;8550;52.596;13.320;2023-03-01T02:26:18;6.83;;;2.40;;
16866;SDS011;8550;52.596;13.320;2023-03-01T02:31:26;6.63;;;3.10;;
16866;SDS011;8550;52.596;13.320;2023-03-01T02:36:44;8.13;;;3.38;;
16866;SDS011;8550;52.596;13.320;2023-03-01T02:41:50;10.83;;;4.00;;
16866;SDS011;8550;52.596;13.320;2023-03-01T02:46:56;5.90;;;3.75;;
16866;SDS011;8550;52.596;13.320;2023-03-01T02:52:08;7.13;;;2.88;;
16866;SDS011;8550;52.596;13.320;2023-03-01T02:57:19;8.47;;;3.40;;
16866;SDS011;8550;52.596;13.320;2023-03-01T03:02:25;4.93;;;3.27;;
16866;SDS011;8550;52.596;13.320;2023-03-01T03:07:37;6.60;;;3.47;;
16866;SDS011;8550;52.596;13.320;2023-03-01T03:12:40;5.00;;;2.45;;
16866;SDS011;8550;52.596;13.320;2023-03-01T03:17:44;4.63;;;2.40;;
16866;SDS011;8550;52.596;13.320;2023-03-01T03:22:46;6.15;;;3.53;;
16866;SDS011;8550;52.596;13.320;2023-03-01T03:27:50;4.30;;;2.63;;
16866;SDS011;8550;52.596;13.320;2023-03-01T03:32:59;8.90;;;3.47;;
16866;SDS011;8550;52.596;13.320;2023-03-01T03:38:03;4.20;;;2.00;;
16866;SDS011;8550;52.596;13.320;2023-03-01T03:43:10;6.78;;;2.58;;
16866;SDS011;8550;52.596;13.320;2023-03-01T03:48:15;5.93;;;2.67;;
16866;SDS011;8550;52.596;13.320;2023-03-01T03:53:18;5.13;;;2.43;;
16866;SDS011;8550;52.596;13.320;2023-03-01T03:58:21;5.75;;;3.33;;
16866;SDS011;8550;52.596;13.320;2023-03-01T04:03:27;7.88;;;3.45;;
16866;SDS011;8550;52.596;13.320;2023-03-01T04:08:29;4.97;;;2.87;;
16866;SDS011;8550;52.596;13.320;2023-03-01T04:13:34;6.03;;;3.33;;
16866;SDS011;8550;52.596;13.320;2023-03-01T04:18:37;4.00;;;2.53;;
16866;SDS011;8550;52.596;13.320;2023-03-01T04:23:39;4.63;;;2.30;;
16866;SDS011;8550;52.596;13.320;2023-03-01T04:28:42;13.27;;;4.40;;
16866;SDS011;8550;52.596;13.320;2023-03-01T04:33:48;4.65;;;2.45;;
16866;SDS011;8550;52.596;13.320;2023-03-01T04:38:52;4.37;;;2.87;;
16866;SDS011;8550;52.596;13.320;2023-03-01T04:43:54;4.17;;;2.67;;
16866;SDS011;8550;52.596;13.320;2023-03-01T04:48:58;5.20;;;4.03;;
16866;SDS011;8550;52.596;13.320;2023-03-01T04:54:01;4.28;;;2.25;;
16866;SDS011;8550;52.596;13.320;2023-03-01T04:59:03;6.73;;;3.27;;
16866;SDS011;8550;52.596;13.320;2023-03-01T05:04:07;6.53;;;4.10;;
16866;SDS011;8550;52.596;13.320;2023-03-01T05:09:13;5.20;;;3.05;;
16866;SDS011;8550;52.596;13.320;2023-03-01T05:14:15;4.07;;;2.40;;
16866;SDS011;8550;52.596;13.320;2023-03-01T05:19:18;3.90;;;2.22;;
16866;SDS011;8550;52.596;13.320;2023-03-01T05:24:22;5.68;;;3.50;;
16866;SDS011;8550;52.596;13.320;2023-03-01T05:29:26;6.70;;;3.77;;
16866;SDS011;8550;52.596;13.320;2023-03-01T05:34:33;4.30;;;2.60;;
16866;SDS011;8550;52.596;13.320;2023-03-01T05:39:36;6.70;;;3.83;;
16866;SDS011;8550;52.596;13.320;2023-03-01T05:44:38;6.05;;;3.15;;
16866;SDS011;8550;52.596;13.320;2023-03-01T05:49:43;4.43;;;2.20;;
16866;SDS011;8550;52.596;13.320;2023-03-01T05:54:45;3.92;;;1.67;;
16866;SDS011;8550;52.596;13.320;2023-03-01T05:59:47;6.05;;;3.35;;
16866;SDS011;8550;52.596;13.320;2023-03-01T06:04:51;7.77;;;3.93;;
16866;SDS011;8550;52.596;13.320;2023-03-01T06:09:53;4.65;;;3.25;;
16866;SDS011;8550;52.596;13.320;2023-03-01T06:14:54;9.27;;;3.60;;
16866;SDS011;8550;52.596;13.320;2023-03-01T06:19:59;3.50;;;2.67;;
16866;SDS011;8550;52.596;13.320;2023-03-01T06:25:01;4.90;;;2.27;;
16866;SDS011;8550;52.596;13.320;2023-03-01T06:30:03;4.63;;;3.33;;
16866;SDS011;8550;52.596;13.320;2023-03-01T06:35:08;2.65;;;1.48;;
16866;SDS011;8550;52.596;13.320;2023-03-01T06:40:11;6.70;;;3.37;;
16866;SDS011;8550;52.596;13.320;2023-03-01T06:45:14;4.28;;;2.20;;
16866;SDS011;8550;52.596;13.320;2023-03-01T06:50:32;5.45;;;3.03;;
16866;SDS011;8550;52.596;13.320;2023-03-01T06:55:34;3.67;;;2.23;;
16866;SDS011;8550;52.596;13.320;2023-03-01T07:00:42;4.47;;;2.72;;
16866;SDS011;8550;52.596;13.320;2023-03-01T07:05:45;3.22;;;1.08;;
16866;SDS011;8550;52.596;13.320;2023-03-01T07:10:54;6.17;;;2.20;;
16866;SDS011;8550;52.596;13.320;2023-03-01T07:15:56;4.57;;;1.90;;
16866;SDS011;8550;52.596;13.320;2023-03-01T07:21:04;5.65;;;3.45;;
16866;SDS011;8550;52.596;13.320;2023-03-01T07:26:07;9.90;;;3.00;;
16866;SDS011;8550;52.596;13.320;2023-03-01T07:31:10;2.90;;;1.47;;
16866;SDS011;8550;52.596;13.320;2023-03-01T07:36:14;7.03;;;2.83;;
16866;SDS011;8550;52.596;13.320;2023-03-01T07:41:16;5.45;;;2.28;;
16866;SDS011;8550;52.596;13.320;2023-03-01T07:46:20;3.77;;;1.93;;
16866;SDS011;8550;52.596;13.320;2023-03-01T07:51:23;6.18;;;3.28;;
16866;SDS011;8550;52.596;13.320;2023-03-01T07:56:26;13.32;;;3.08;;
16866;SDS011;8550;52.596;13.320;2023-03-01T08:01:28;6.43;;;2.90;;
16866;SDS011;8550;52.596;13.320;2023-03-01T08:06:33;6.07;;;3.63;;
16866;SDS011;8550;52.596;13.320;2023-03-01T08:11:35;4.35;;;2.22;;
16866;SDS011;8550;52.596;13.320;2023-03-01T08:16:37;6.93;;;2.50;;
16866;SDS011;8550;52.596;13.320;2023-03-01T08:21:41;4.70;;;2.37;;
16866;SDS011;8550;52.596;13.320;2023-03-01T08:26:43;6.72;;;3.28;;
16866;SDS011;8550;52.596;13.320;2023-03-01T08:31:45;5.43;;;2.92;;
16866;SDS011;8550;52.596;13.320;2023-03-01T08:36:48;6.73;;;3.53;;
16866;SDS011;8550;52.596;13.320;2023-03-01T08:41:51;4.03;;;2.15;;
16866;SDS011;8550;52.596;13.320;2023-03-01T08:46:53;5.72;;;1.75;;
16866;SDS011;8550;52.596;13.320;2023-03-01T08:51:57;4.33;;;1.47;;
16866;SDS011;8550;52.596;13.320;2023-03-01T08:57:00;5.23;;;2.03;;
16866;SDS011;8550;52.596;13.320;2023-03-01T09:02:03;8.70;;;3.60;;
16866;SDS011;8550;52.596;13.320;2023-03-01T09:07:07;3.67;;;1.73;;
16866;SDS011;8550;52.596;13.320;2023-03-01T09:12:09;4.80;;;1.67;;
16866;SDS011;8550;52.596;13.320;2023-03-01T09:17:11;3.45;;;1.67;;
16866;SDS011;8550;52.596;13.320;2023-03-01T09:22:15;4.38;;;2.13;;
16866;SDS011;8550;52.596;13.320;2023-03-01T09:27:17;3.40;;;1.47;;
16866;SDS011;8550;52.596;13.320;2023-03-01T09:32:19;3.60;;;1.27;;
16866;SDS011;8550;52.596;13.320;2023-03-01T09:37:22;2.95;;;0.98;;
16866;SDS011;8550;52.596;13.320;2023-03-01T09:42:24;2.53;;;1.17;;
16866;SDS011;8550;52.596;13.320;2023-03-01T09:47:27;2.70;;;1.03;;
16866;SDS011;8550;52.596;13.320;2023-03-01T09:52:36;2.13;;;1.05;;
16866;SDS011;8550;52.596;13.320;2023-03-01T09:57:43;4.28;;;1.30;;
16866;SDS011;8550;52.596;13.320;2023-03-01T10:02:51;7.47;;;1.07;;
16866;SDS011;8550;52.596;13.320;2023-03-01T10:08:06;4.20;;;1.67;;
16866;SDS011;8550;52.596;13.320;2023-03-01T10:13:26;5.10;;;1.27;;
16866;SDS011;8550;52.596;13.320;2023-03-01T10:18:34;2.97;;;1.07;;
16866;SDS011;8550;52.596;13.320;2023-03-01T10:23:39;3.92;;;1.30;;
16866;SDS011;8550;52.596;13.320;2023-03-01T10:28:44;3.42;;;1.20;;
16866;SDS011;8550;52.596;13.320;2023-03-01T10:33:54;2.90;;;1.37;;
16866;SDS011;8550;52.596;13.320;2023-03-01T10:38:58;3.53;;;1.47;;
16866;SDS011;8550;52.596;13.320;2023-03-01T10:44:00;5.72;;;1.52;;
16866;SDS011;8550;52.596;13.320;2023-03-01T10:49:06;4.90;;;1.00;;
16866;SDS011;8550;52.596;13.320;2023-03-01T10:54:17;5.20;;;1.47;;
16866;SDS011;8550;52.596;13.320;2023-03-01T10:59:25;2.58;;;1.02;;
16866;SDS011;8550;52.596;13.320;2023-03-01T11:04:29;3.33;;;0.95;;
16866;SDS011;8550;52.596;13.320;2023-03-01T11:09:33;7.60;;;0.87;;
16866;SDS011;8550;52.596;13.320;2023-03-01T11:14:37;3.70;;;0.85;;
16866;SDS011;8550;52.596;13.320;2023-03-01T11:19:49;1.92;;;0.50;;
16866;SDS011;8550;52.596;13.320;2023-03-01T11:25:07;3.60;;;1.33;;
16866;SDS011;8550;52.596;13.320;2023-03-01T11:30:15;2.57;;;1.13;;
16866;SDS011;8550;52.596;13.320;2023-03-01T11:35:21;3.30;;;0.98;;
16866;SDS011;8550;52.596;13.320;2023-03-01T11:40:29;4.45;;;1.48;;
16866;SDS011;8550;52.596;13.320;2023-03-01T11:45:39;2.70;;;1.10;;
16866;SDS011;8550;52.596;13.320;2023-03-01T11:50:52;5.35;;;1.33;;
16866;SDS011;8550;52.596;13.320;2023-03-01T11:56:01;3.75;;;1.15;;
16866;SDS011;8550;52.596;13.320;2023-03-01T12:01:12;3.63;;;1.30;;
16866;SDS011;8550;52.596;13.320;2023-03-01T12:12:03;4.07;;;1.45;;
16866;SDS011;8550;52.596;13.320;2023-03-01T12:17:32;4.07;;;1.30;;
16866;SDS011;8550;52.596;13.320;2023-03-01T12:23:06;4.67;;;1.70;;
16866;SDS011;8550;52.596;13.320;2023-03-01T12:34:03;4.43;;;1.70;;
16866;SDS011;8550;52.596;13.320;2023-03-01T12:39:32;3.67;;;1.30;;
16866;SDS011;8550;52.596;13.320;2023-03-01T12:44:47;3.80;;;1.30;;
16866;SDS011;8550;52.596;13.320;2023-03-01T12:50:04;4.57;;;1.20;;
16866;SDS011;8550;52.596;13.320;2023-03-01T12:55:18;3.90;;;1.43;;
16866;SDS011;8550;52.596;13.320;2023-03-01T13:00:30;6.22;;;1.10;;
16866;SDS011;8550;52.596;13.320;2023-03-01T13:05:39;3.20;;;0.75;;
16866;SDS011;8550;52.596;13.320;2023-03-01T13:10:50;3.97;;;0.90;;
16866;SDS011;8550;52.596;13.320;2023-03-01T13:15:59;2.73;;;0.87;;
16866;SDS011;8550;52.596;13.320;2023-03-01T13:21:29;2.35;;;0.95;;
16866;SDS011;8550;52.596;13.320;2023-03-01T13:26:53;6.93;;;3.28;;
16866;SDS011;8550;52.596;13.320;2023-03-01T13:32:26;4.27;;;0.90;;
16866;SDS011;8550;52.596;13.320;2023-03-01T13:37:33;2.45;;;0.60;;
16866;SDS011;8550;52.596;13.320;2023-03-01T13:42:38;2.90;;;0.60;;
16866;SDS011;8550;52.596;13.320;2023-03-01T13:47:44;3.80;;;0.60;;
16866;SDS011;8550;52.596;13.320;2023-03-01T13:52:50;1.55;;;0.40;;
16866;SDS011;8550;52.596;13.320;2023-03-01T13:57:55;2.45;;;0.65;;
16866;SDS011;8550;52.596;13.320;2023-03-01T14:03:02;3.57;;;0.83;;
16866;SDS011;8550;52.596;13.320;2023-03-01T14:08:18;2.03;;;0.50;;
16866;SDS011;8550;52.596;13.320;2023-03-01T14:13:25;2.35;;;0.80;;
16866;SDS011;8550;52.596;13.320;2023-03-01T14:18:38;2.63;;;1.00;;
16866;SDS011;8550;52.596;13.320;2023-03-01T14:23:44;3.37;;;0.67;;
16866;SDS011;8550;52.596;13.320;2023-03-01T14:28:47;1.83;;;0.60;;
16866;SDS011;8550;52.596;13.320;2023-03-01T14:33:55;3.25;;;0.90;;
16866;SDS011;8550;52.596;13.320;2023-03-01T14:38:57;2.67;;;1.00;;
16866;SDS011;8550;52.596;13.320;2023-03-01T14:44:05;2.35;;;0.63;;
16866;SDS011;8550;52.596;13.320;2023-03-01T14:49:15;2.28;;;0.80;;
16866;SDS011;8550;52.596;13.320;2023-03-01T14:54:21;3.23;;;0.93;;
16866;SDS011;8550;52.596;13.320;2023-03-01T14:59:26;2.57;;;0.97;;
16866;SDS011;8550;52.596;13.320;2023-03-01T15:04:30;3.67;;;1.02;;
16866;SDS011;8550;52.596;13.320;2023-03-01T15:09:34;3.63;;;0.80;;
16866;SDS011;8550;52.596;13.320;2023-03-01T15:14:39;2.37;;;0.60;;
16866;SDS011;8550;52.596;13.320;2023-03-01T15:19:43;2.38;;;0.77;;
16866;SDS011;8550;52.596;13.320;2023-03-01T15:24:47;3.00;;;0.70;;
16866;SDS011;8550;52.596;13.320;2023-03-01T15:29:52;3.93;;;0.77;;
16866;SDS011;8550;52.596;13.320;2023-03-01T15:34:58;2.35;;;0.85;;
16866;SDS011;8550;52.596;13.320;2023-03-01T15:40:00;3.17;;;0.88;;
16866;SDS011;8550;52.596;13.320;2023-03-01T15:45:07;6.27;;;1.23;;
16866;SDS011;8550;52.596;13.320;2023-03-01T15:50:16;8.63;;;1.63;;
16866;SDS011;8550;52.596;13.320;2023-03-01T15:55:21;3.55;;;1.00;;
16866;SDS011;8550;52.596;13.320;2023-03-01T16:00:24;4.07;;;1.10;;
16866;SDS011;8550;52.596;13.320;2023-03-01T16:05:28;3.77;;;1.10;;
16866;SDS011;8550;52.596;13.320;2023-03-01T16:10:32;4.22;;;1.10;;
16866;SDS011;8550;52.596;13.320;2023-03-01T16:15:34;3.97;;;0.73;;
16866;SDS011;8550;52.596;13.320;2023-03-01T16:20:39;2.90;;;0.93;;
16866;SDS011;8550;52.596;13.320;2023-03-01T16:25:41;4.25;;;1.67;;
16866;SDS011;8550;52.596;13.320;2023-03-01T16:30:45;5.30;;;1.20;;
16866;SDS011;8550;52.596;13.320;2023-03-01T16:35:50;5.50;;;1.17;;
16866;SDS011;8550;52.596;13.320;2023-03-01T16:40:52;1.97;;;0.70;;
16866;SDS011;8550;52.596;13.320;2023-03-01T16:45:54;2.50;;;0.93;;
16866;SDS011;8550;52.596;13.320;2023-03-01T16:50:58;2.15;;;0.65;;
16866;SDS011;8550;52.596;13.320;2023-03-01T16:56:03;6.47;;;1.00;;
16866;SDS011;8550;52.596;13.320;2023-03-01T17:01:08;3.47;;;1.08;;
16866;SDS011;8550;52.596;13.320;2023-03-01T17:06:17;3.28;;;0.82;;
16866;SDS011;8550;52.596;13.320;2023-03-01T17:11:22;2.83;;;0.73;;
16866;SDS011;8550;52.596;13.320;2023-03-01T17:16:24;5.82;;;1.10;;
16866;SDS011;8550;52.596;13.320;2023-03-01T17:21:28;2.22;;;0.52;;
16866;SDS011;8550;52.596;13.320;2023-03-01T17:26:30;3.17;;;0.90;;
16866;SDS011;8550;52.596;13.320;2023-03-01T17:31:32;6.60;;;1.20;;
16866;SDS011;8550;52.596;13.320;2023-03-01T17:36:36;4.80;;;1.30;;
16866;SDS011;8550;52.596;13.320;2023-03-01T17:41:43;6.88;;;3.08;;
16866;SDS011;8550;52.596;13.320;2023-03-01T17:46:44;4.80;;;1.23;;
16866;SDS011;8550;52.596;13.320;2023-03-01T17:51:48;3.28;;;0.95;;
16866;SDS011;8550;52.596;13.320;2023-03-01T17:56:50;3.28;;;1.20;;
16866;SDS011;8550;52.596;13.320;2023-03-01T18:01:52;3.67;;;1.43;;
16866;SDS011;8550;52.596;13.320;2023-03-01T18:06:55;4.20;;;0.95;;
16866;SDS011;8550;52.596;13.320;2023-03-01T18:11:58;4.47;;;1.20;;
16866;SDS011;8550;52.596;13.320;2023-03-01T18:17:00;26.33;;;12.87;;
16866;SDS011;8550;52.596;13.320;2023-03-01T18:22:07;6.40;;;1.77;;
16866;SDS011;8550;52.596;13.320;2023-03-01T18:27:09;5.80;;;1.95;;
16866;SDS011;8550;52.596;13.320;2023-03-01T18:32:12;4.90;;;2.05;;
16866;SDS011;8550;52.596;13.320;2023-03-01T18:37:15;4.10;;;1.30;;
16866;SDS011;8550;52.596;13.320;2023-03-01T18:42:18;4.90;;;1.40;;
16866;SDS011;8550;52.596;13.320;2023-03-01T18:47:20;7.13;;;1.83;;
16866;SDS011;8550;52.596;13.320;2023-03-01T18:52:24;5.50;;;2.20;;
16866;SDS011;8550;52.596;13.320;2023-03-01T18:57:26;4.65;;;1.60;;
16866;SDS011;8550;52.596;13.320;2023-03-01T19:02:28;8.40;;;1.60;;
16866;SDS011;8550;52.596;13.320;2023-03-01T19:07:32;4.17;;;1.60;;
16866;SDS011;8550;52.596;13.320;2023-03-01T19:12:34;6.23;;;2.33;;
16866;SDS011;8550;52.596;13.320;2023-03-01T19:17:36;9.25;;;2.22;;
16866;SDS011;8550;52.596;13.320;2023-03-01T19:22:40;5.25;;;1.67;;
16866;SDS011;8550;52.596;13.320;2023-03-01T19:27:41;7.43;;;2.37;;
16866;SDS011;8550;52.596;13.320;2023-03-01T19:32:43;13.10;;;3.22;;
16866;SDS011;8550;52.596;13.320;2023-03-01T19:37:47;4.55;;;2.00;;
16866;SDS011;8550;52.596;13.320;2023-03-01T19:42:49;12.60;;;2.30;;
16866;SDS011;8550;52.596;13.320;2023-03-01T19:47:52;4.53;;;1.92;;
16866;SDS011;8550;52.596;13.320;2023-03-01T19:52:56;12.35;;;3.05;;
16866;SDS011;8550;52.596;13.320;2023-03-01T19:57:58;11.07;;;4.33;;
16866;SDS011;8550;52.596;13.320;2023-03-01T20:03:00;7.30;;;3.37;;
16866;SDS011;8550;52.596;13.320;2023-03-01T20:08:04;10.35;;;4.65;;
16866;SDS011;8550;52.596;13.320;2023-03-01T20:13:06;16.02;;;7.25;;
16866;SDS011;8550;52.596;13.320;2023-03-01T20:18:08;8.27;;;2.60;;
16866;SDS011;8550;52.596;13.320;2023-03-01T20:23:11;9.88;;;4.68;;
16866;SDS011;8550;52.596;13.320;2023-03-01T20:28:13;10.70;;;4.38;;
16866;SDS011;8550;52.596;13.320;2023-03-01T20:33:16;10.77;;;4.17;;
16866;SDS011;8550;52.596;13.320;2023-03-01T20:38:19;9.13;;;4.47;;
16866;SDS011;8550;52.596;13.320;2023-03-01T20:43:21;9.55;;;5.57;;
16866;SDS011;8550;52.596;13.320;2023-03-01T20:48:23;8.73;;;4.47;;
16866;SDS011;8550;52.596;13.320;2023-03-01T20:53:27;9.17;;;4.63;;
16866;SDS011;8550;52.596;13.320;2023-03-01T20:58:29;7.03;;;3.15;;
16866;SDS011;8550;52.596;13.320;2023-03-01T21:03:33;13.07;;;5.50;;
16866;SDS011;8550;52.596;13.320;2023-03-01T21:08:37;9.50;;;5.80;;
16866;SDS011;8550;52.596;13.320;2023-03-01T21:13:39;12.10;;;5.18;;
16866;SDS011;8550;52.596;13.320;2023-03-01T21:18:43;11.02;;;4.22;;
16866;SDS011;8550;52.596;13.320;2023-03-01T21:23:47;12.20;;;5.37;;
16866;SDS011;8550;52.596;13.320;2023-03-01T21:28:50;10.52;;;5.53;;
16866;SDS011;8550;52.596;13.320;2023-03-01T21:33:56;9.02;;;5.65;;
16866;SDS011;8550;52.596;13.320;2023-03-01T21:39:00;15.00;;;6.83;;
16866;SDS011;8550;52.596;13.320;2023-03-01T21:44:03;13.73;;;6.60;;
16866;SDS011;8550;52.596;13.320;2023-03-01T21:49:06;10.90;;;6.13;;
16866;SDS011;8550;52.596;13.320;2023-03-01T21:54:12;9.30;;;5.45;;
16866;SDS011;8550;52.596;13.320;2023-03-01T21:59:16;12.83;;;5.70;;
16866;SDS011;8550;52.596;13.320;2023-03-01T22:04:19;15.95;;;7.63;;
16866;SDS011;8550;52.596;13.320;2023-03-01T22:09:22;10.50;;;6.15;;
16866;SDS011;8550;52.596;13.320;2023-03-01T22:14:25;9.20;;;5.20;;
16866;SDS011;8550;52.596;13.320;2023-03-01T22:19:27;12.02;;;6.57;;
16866;SDS011;8550;52.596;13.320;2023-03-01T22:24:30;12.50;;;4.93;;
16866;SDS011;8550;52.596;13.320;2023-03-01T22:29:32;9.83;;;5.03;;
16866;SDS011;8550;52.596;13.320;2023-03-01T22:34:34;10.30;;;5.73;;
16866;SDS011;8550;52.596;13.320;2023-03-01T22:39:37;8.23;;;5.22;;
16866;SDS011;8550;52.596;13.320;2023-03-01T22:44:39;7.70;;;3.97;;
16866;SDS011;8550;52.596;13.320;2023-03-01T22:49:41;9.73;;;4.50;;
16866;SDS011;8550;52.596;13.320;2023-03-01T22:54:44;9.82;;;4.88;;
16866;SDS011;8550;52.596;13.320;2023-03-01T22:59:46;10.63;;;4.38;;
16866;SDS011;8550;52.596;13.320;2023-03-01T23:04:48;7.27;;;5.03;;
16866;SDS011;8550;52.596;13.320;2023-03-01T23:09:51;9.38;;;6.05;;
16866;SDS011;8550;52.596;13.320;2023-03-01T23:14:53;12.70;;;5.90;;
16866;SDS011;8550;52.596;13.320;2023-03-01T23:19:55;10.30;;;5.87;;
16866;SDS011;8550;52.596;13.320;2023-03-01T23:24:59;13.33;;;6.00;;
16866;SDS011;8550;52.596;13.320;2023-03-01T23:30:01;7.68;;;4.68;;
16866;SDS011;8550;52.596;13.320;2023-03-01T23:35:04;10.02;;;4.93;;
16866;SDS011;8550;52.596;13.320;2023-03-01T23:40:09;11.43;;;4.97;;
16866;SDS011;8550;52.596;13.320;2023-03-01T23:45:12;7.20;;;3.42;;
16866;SDS011;8550;52.596;13.320;2023-03-01T23:50:14;6.88;;;3.67;;
16866;SDS011;8550;52.596;13.320;2023-03-01T23:55:17;9.67;;;4.57;;
